Time;durP1;ratioP1;P1;durP2;ratioP2;P2;SDS_P1;SDS_P2;PMS_P1;PMS_P2;Temp;Humidity;BMP_temperature;BMP_pressure;BME280_temperature;BME280_humidity;BME280_pressure;Samples;Min_cycle;Max_cycle;Signal;HPM_P1;HPM_P2
2020/12/04 00:01:36;;;;;;;55.42;26.55;;;-3275.40;82.90;;;;;;5024622;28;20045;-83
2020/12/04 00:04:02;;;;;;;52.97;24.73;;;-3275.40;83.10;;;;;;5019187;28;20042;-83
2020/12/04 00:06:27;;;;;;;53.42;27.23;;;-3275.50;82.80;;;;;;5029236;28;20032;-84
2020/12/04 00:08:53;;;;;;;53.08;25.77;;;-3275.40;83.00;;;;;;5017318;28;20029;-84
2020/12/04 00:11:20;;;;;;;55.05;25.88;;;-3275.40;83.40;;;;;;5032494;28;20121;-84
2020/12/04 00:13:46;;;;;;;56.38;27.42;;;-3275.40;83.50;;;;;;5021282;28;20057;-84
2020/12/04 00:16:11;;;;;;;59.88;26.63;;;-3275.40;83.70;;;;;;5026103;28;20056;-84
2020/12/04 00:18:37;;;;;;;57.72;26.67;;;-3275.50;84.00;;;;;;5030503;28;20527;-84
2020/12/04 00:21:03;;;;;;;53.03;25.48;;;-3275.60;83.70;;;;;;5017920;28;20033;-84
2020/12/04 00:23:28;;;;;;;56.60;27.75;;;-3275.60;83.40;;;;;;5046915;28;20057;-84
2020/12/04 00:25:54;;;;;;;52.60;26.42;;;-3275.60;83.40;;;;;;5039534;28;20056;-84
2020/12/04 00:28:20;;;;;;;58.20;25.98;;;-3275.50;83.40;;;;;;5048070;28;20075;-84
2020/12/04 00:30:45;;;;;;;57.92;28.10;;;-3275.50;84.10;;;;;;5048713;28;20036;-84
2020/12/04 00:33:11;;;;;;;58.97;28.55;;;-3275.50;83.70;;;;;;5021192;28;20043;-84
2020/12/04 00:35:37;;;;;;;53.45;26.58;;;-3275.50;83.90;;;;;;5024232;28;20029;-84
2020/12/04 00:38:03;;;;;;;56.78;27.27;;;-3275.60;84.40;;;;;;5045567;28;20029;-83
2020/12/04 00:40:28;;;;;;;57.90;27.75;;;-3275.60;83.50;;;;;;5033251;28;20033;-84
2020/12/04 00:42:54;;;;;;;56.30;27.85;;;-3275.70;84.20;;;;;;5038180;28;20037;-84
2020/12/04 00:45:19;;;;;;;59.80;27.25;;;-3275.70;84.30;;;;;;5056062;28;20052;-84
2020/12/04 00:47:45;;;;;;;56.72;28.08;;;-3275.70;83.20;;;;;;5044825;28;20049;-84
2020/12/04 00:50:11;;;;;;;56.28;28.88;;;-3275.70;83.50;;;;;;5050810;28;20024;-84
2020/12/04 00:52:37;;;;;;;53.83;27.58;;;-3275.70;83.90;;;;;;5036067;28;20021;-84
2020/12/04 00:55:02;;;;;;;58.58;27.98;;;-3275.70;83.80;;;;;;5041368;28;20480;-84
2020/12/04 00:57:28;;;;;;;55.17;28.20;;;-3275.70;84.20;;;;;;5055923;28;20032;-84
2020/12/04 00:59:53;;;;;;;53.97;27.88;;;-3275.70;84.00;;;;;;5043187;28;20057;-84
2020/12/04 01:02:19;;;;;;;56.50;29.63;;;-3275.70;83.60;;;;;;5050301;28;20029;-84
2020/12/04 01:04:45;;;;;;;53.78;28.42;;;-3275.70;83.90;;;;;;5039233;28;20021;-84
2020/12/04 01:07:10;;;;;;;59.88;29.50;;;-3275.60;83.70;;;;;;5031284;28;20025;-84
2020/12/04 01:09:37;;;;;;;59.72;29.48;;;-3275.70;84.30;;;;;;5045730;28;20032;-85
2020/12/04 01:12:04;;;;;;;63.75;29.75;;;-3275.70;85.10;;;;;;5055586;28;20472;-86
2020/12/04 01:14:29;;;;;;;58.20;29.55;;;-3275.70;85.60;;;;;;5038863;28;20025;-84
2020/12/04 01:16:55;;;;;;;62.05;30.38;;;-3275.80;85.40;;;;;;5051033;28;20020;-84
2020/12/04 01:19:21;;;;;;;58.15;27.45;;;-3275.90;85.70;;;;;;5043625;28;20032;-85
2020/12/04 01:21:48;;;;;;;56.13;27.95;;;-3275.90;84.40;;;;;;5055003;28;20021;-84
2020/12/04 01:24:14;;;;;;;54.00;28.33;;;-3276.00;84.80;;;;;;5040054;28;20048;-85
2020/12/04 01:26:40;;;;;;;48.38;23.27;;;-3276.00;84.30;;;;;;5053864;28;20024;-85
2020/12/04 01:29:07;;;;;;;47.70;24.70;;;-3276.00;85.30;;;;;;5049347;28;20029;-84
2020/12/04 01:31:32;;;;;;;46.60;24.00;;;-3276.10;83.90;;;;;;5044710;28;20033;-84
2020/12/04 01:34:00;;;;;;;45.97;24.38;;;-3276.10;84.70;;;;;;5042069;28;20538;-84
2020/12/04 01:36:27;;;;;;;39.97;21.10;;;-3276.20;84.30;;;;;;5051828;28;20028;-84
2020/12/04 01:38:53;;;;;;;45.17;22.08;;;-3276.30;84.90;;;;;;5051079;28;20034;-84
2020/12/04 01:41:19;;;;;;;38.40;20.52;;;-3276.40;85.20;;;;;;5008645;28;20558;-84
2020/12/04 01:43:44;;;;;;;38.35;20.27;;;-3276.50;84.10;;;;;;5043561;28;20087;-84
2020/12/04 01:46:12;;;;;;;39.28;20.63;;;-3276.60;85.00;;;;;;5049708;28;20476;-85
2020/12/04 01:48:37;;;;;;;37.25;20.30;;;-3276.70;84.50;;;;;;5052974;28;20060;-85
2020/12/04 01:51:03;;;;;;;41.95;21.77;;;0.00;85.20;;;;;;5040362;28;20052;-86
2020/12/04 01:53:29;;;;;;;41.30;21.38;;;0.00;84.20;;;;;;5054549;28;20041;-86
2020/12/04 01:55:55;;;;;;;42.95;20.40;;;0.00;84.50;;;;;;5042242;28;20117;-85
2020/12/04 01:58:20;;;;;;;41.20;21.40;;;0.00;84.00;;;;;;5050658;28;20040;-84
2020/12/04 02:00:46;;;;;;;47.00;22.27;;;0.10;84.80;;;;;;5051460;28;20025;-85
2020/12/04 02:03:13;;;;;;;43.33;20.85;;;0.10;83.60;;;;;;5044315;28;20041;-86
2020/12/04 02:05:53;;;;;;;39.60;18.83;;;0.20;85.10;;;;;;5027627;28;20024;-85
2020/12/04 02:08:45;;;;;;;41.15;20.38;;;0.20;84.50;;;;;;5020940;28;20029;-85
2020/12/04 02:11:18;;;;;;;42.53;21.25;;;0.30;84.20;;;;;;5041076;28;20083;-85
2020/12/04 02:13:46;;;;;;;38.83;20.08;;;0.30;84.60;;;;;;5025626;28;20017;-85
2020/12/04 02:16:19;;;;;;;37.83;20.23;;;0.50;84.40;;;;;;5049319;28;20033;-85
2020/12/04 02:18:46;;;;;;;41.60;18.83;;;0.40;83.50;;;;;;5020168;28;20009;-85
2020/12/04 02:21:12;;;;;;;35.30;18.00;;;0.50;84.10;;;;;;5047508;28;20387;-85
2020/12/04 02:23:40;;;;;;;36.30;19.85;;;0.50;83.50;;;;;;5044361;28;20088;-85
2020/12/04 02:26:07;;;;;;;40.55;18.90;;;0.60;83.70;;;;;;5040180;28;20072;-85
2020/12/04 02:28:37;;;;;;;34.08;18.17;;;0.70;84.60;;;;;;5050549;28;20036;-85
2020/12/04 02:31:04;;;;;;;34.35;16.92;;;0.70;83.30;;;;;;5039632;28;20545;-83
2020/12/04 02:33:30;;;;;;;33.35;17.75;;;0.80;84.50;;;;;;5054078;28;20472;-84
2020/12/04 02:35:56;;;;;;;39.30;18.85;;;0.80;84.40;;;;;;5041042;28;20022;-84
2020/12/04 02:38:23;;;;;;;34.63;19.77;;;0.70;83.40;;;;;;5050311;28;20151;-83
2020/12/04 02:40:49;;;;;;;34.17;17.73;;;0.70;84.10;;;;;;5037519;28;20530;-83
2020/12/04 02:43:14;;;;;;;33.00;17.35;;;0.70;83.90;;;;;;5046728;28;20029;-83
2020/12/04 02:45:40;;;;;;;34.00;17.63;;;0.70;84.30;;;;;;5026627;28;20025;-83
2020/12/04 02:48:06;;;;;;;36.70;19.35;;;0.70;84.00;;;;;;5039578;28;20060;-83
2020/12/04 02:50:31;;;;;;;34.20;17.85;;;0.70;84.20;;;;;;5051106;28;20029;-83
2020/12/04 02:52:57;;;;;;;34.38;18.73;;;0.70;85.10;;;;;;5049056;28;20488;-83
2020/12/04 02:55:23;;;;;;;38.72;19.83;;;0.60;84.00;;;;;;5041930;28;20079;-83
2020/12/04 02:57:48;;;;;;;38.30;18.95;;;0.60;84.80;;;;;;5053615;28;20071;-84
2020/12/04 03:00:14;;;;;;;36.70;18.63;;;0.50;84.60;;;;;;5038215;28;20033;-84
2020/12/04 03:02:40;;;;;;;41.08;19.98;;;0.60;84.70;;;;;;5049229;28;20060;-84
2020/12/04 03:05:05;;;;;;;37.30;19.88;;;0.50;85.80;;;;;;5047072;28;20064;-84
2020/12/04 03:07:31;;;;;;;34.33;18.52;;;0.60;84.80;;;;;;5025300;28;20037;-84
2020/12/04 03:09:57;;;;;;;39.85;18.95;;;0.60;84.60;;;;;;5040763;28;20040;-84
2020/12/04 03:12:22;;;;;;;35.15;17.92;;;0.60;84.50;;;;;;5049647;28;20407;-84
2020/12/04 03:14:48;;;;;;;40.05;18.80;;;0.60;84.80;;;;;;5049912;28;20021;-84
2020/12/04 03:17:13;;;;;;;37.05;19.58;;;0.60;84.80;;;;;;5040140;28;20051;-84
2020/12/04 03:19:39;;;;;;;30.52;17.75;;;0.60;85.00;;;;;;5052823;28;20029;-84
2020/12/04 03:22:05;;;;;;;34.67;18.95;;;0.60;84.50;;;;;;5021131;28;20061;-84
2020/12/04 03:24:33;;;;;;;36.45;19.20;;;0.60;85.50;;;;;;5050483;28;20480;-84
2020/12/04 03:27:02;;;;;;;33.00;18.40;;;0.70;84.50;;;;;;5048199;28;20049;-85
2020/12/04 03:29:27;;;;;;;34.53;18.98;;;0.70;84.80;;;;;;5041852;28;20029;-85
2020/12/04 03:31:53;;;;;;;34.63;18.63;;;0.70;84.60;;;;;;5040542;28;20036;-85
2020/12/04 03:34:19;;;;;;;33.40;17.77;;;0.80;85.20;;;;;;5048531;28;20136;-85
2020/12/04 03:36:44;;;;;;;32.00;17.63;;;0.80;84.40;;;;;;5049905;28;20075;-85
2020/12/04 03:39:10;;;;;;;33.88;17.25;;;0.80;84.40;;;;;;5039202;28;20036;-85
2020/12/04 03:41:36;;;;;;;32.83;16.77;;;0.80;84.90;;;;;;5034906;28;20032;-84
2020/12/04 03:44:01;;;;;;;32.45;16.50;;;0.90;84.30;;;;;;5039063;28;20078;-84
2020/12/04 03:46:27;;;;;;;35.13;17.83;;;1.00;84.20;;;;;;5049480;28;20384;-84
2020/12/04 03:48:53;;;;;;;30.75;17.25;;;1.00;84.50;;;;;;5048381;28;20021;-83
2020/12/04 03:51:18;;;;;;;33.17;17.83;;;1.00;84.00;;;;;;5040148;28;20025;-84
2020/12/04 03:53:46;;;;;;;33.47;17.58;;;1.00;83.60;;;;;;5052747;28;20039;-84
2020/12/04 03:56:12;;;;;;;36.75;18.52;;;1.00;84.40;;;;;;5019637;28;20574;-84
2020/12/04 03:58:38;;;;;;;33.30;18.35;;;1.00;84.10;;;;;;5050870;28;20025;-84
2020/12/04 04:01:04;;;;;;;30.25;16.88;;;1.00;83.70;;;;;;5046770;28;20018;-85
2020/12/04 04:03:30;;;;;;;35.00;18.95;;;1.00;85.00;;;;;;5041996;28;20044;-84
2020/12/04 04:05:55;;;;;;;32.75;18.83;;;1.00;84.10;;;;;;5027160;28;20025;-84
2020/12/04 04:08:21;;;;;;;32.17;18.13;;;1.00;84.40;;;;;;5018213;28;20068;-84
2020/12/04 04:10:47;;;;;;;35.22;20.10;;;0.90;84.00;;;;;;5048799;28;20472;-84
2020/12/04 04:13:12;;;;;;;30.83;18.25;;;0.90;85.30;;;;;;5021512;28;20384;-84
2020/12/04 04:15:38;;;;;;;30.42;18.25;;;0.90;84.70;;;;;;5034358;28;20017;-84
2020/12/04 04:18:04;;;;;;;32.17;17.35;;;0.90;84.10;;;;;;5038234;28;20108;-84
2020/12/04 04:20:29;;;;;;;31.02;18.05;;;0.90;83.90;;;;;;5030635;28;20780;-85
2020/12/04 04:22:55;;;;;;;31.95;17.35;;;0.90;84.60;;;;;;5036311;28;20040;-83
2020/12/04 04:25:21;;;;;;;34.05;18.77;;;0.90;84.10;;;;;;5044291;28;20025;-83
2020/12/04 04:27:47;;;;;;;32.78;17.60;;;0.80;84.80;;;;;;5043587;28;20025;-83
2020/12/04 04:30:13;;;;;;;30.27;17.52;;;0.80;85.10;;;;;;5051784;28;20032;-83
2020/12/04 04:32:39;;;;;;;31.15;17.63;;;0.80;84.50;;;;;;5035179;28;20029;-83
2020/12/04 04:35:05;;;;;;;30.30;17.13;;;0.80;84.40;;;;;;5046439;28;20030;-83
2020/12/04 04:37:31;;;;;;;31.50;17.67;;;0.80;84.50;;;;;;5041289;28;20025;-83
2020/12/04 04:39:57;;;;;;;38.65;21.02;;;0.80;84.40;;;;;;5051848;28;20029;-83
2020/12/04 04:42:23;;;;;;;29.58;16.67;;;0.80;85.80;;;;;;5017522;28;20025;-83
2020/12/04 04:44:50;;;;;;;30.80;17.52;;;0.90;84.40;;;;;;5051822;28;20021;-83
2020/12/04 04:47:20;;;;;;;28.65;16.20;;;0.90;85.00;;;;;;5026654;28;20032;-83
2020/12/04 04:49:51;;;;;;;33.00;18.90;;;0.80;84.60;;;;;;5025262;28;20545;-83
2020/12/04 04:52:18;;;;;;;30.42;17.00;;;0.80;84.40;;;;;;5033853;28;20022;-83
2020/12/04 04:54:46;;;;;;;30.75;17.33;;;0.80;84.60;;;;;;5017483;28;20432;-83
2020/12/04 04:57:14;;;;;;;28.58;16.55;;;0.70;85.30;;;;;;5045073;28;20021;-83
2020/12/04 04:59:43;;;;;;;29.77;15.88;;;0.70;85.50;;;;;;5042157;28;20511;-84
2020/12/04 05:02:13;;;;;;;31.35;17.20;;;0.70;85.20;;;;;;5049837;28;20026;-84
2020/12/04 05:04:49;;;;;;;34.28;18.35;;;0.70;85.20;;;;;;5049341;28;20514;-84
2020/12/04 05:07:17;;;;;;;33.53;17.90;;;0.70;85.40;;;;;;5038791;28;20043;-84
2020/12/04 05:09:43;;;;;;;30.10;16.20;;;0.70;85.80;;;;;;5040679;28;20118;-84
2020/12/04 05:12:09;;;;;;;28.67;17.23;;;0.70;85.60;;;;;;5046028;28;20036;-85
2020/12/04 05:14:34;;;;;;;30.30;16.85;;;0.70;85.40;;;;;;5050028;28;20032;-84
2020/12/04 05:17:07;;;;;;;32.63;17.77;;;0.70;85.50;;;;;;5036684;28;20028;-84
2020/12/04 05:19:38;;;;;;;29.88;17.25;;;0.60;85.80;;;;;;5051437;28;20488;-84
2020/12/04 05:22:12;;;;;;;29.45;16.23;;;0.70;85.70;;;;;;5037620;28;20119;-84
2020/12/04 05:24:38;;;;;;;30.20;16.73;;;0.80;85.60;;;;;;5029875;28;20065;-84
2020/12/04 05:27:27;;;;;;;31.42;18.75;;;0.80;85.40;;;;;;5037119;28;20411;-84
2020/12/04 05:29:55;;;;;;;30.13;16.67;;;0.80;85.30;;;;;;5054909;28;20021;-84
2020/12/04 05:32:21;;;;;;;31.98;17.30;;;0.80;85.30;;;;;;5039090;28;20025;-84
2020/12/04 05:34:46;;;;;;;29.35;17.55;;;0.70;85.40;;;;;;5051463;28;20018;-84
2020/12/04 05:37:13;;;;;;;29.30;16.52;;;0.70;85.70;;;;;;5024124;28;20083;-84
2020/12/04 05:39:47;;;;;;;35.88;18.25;;;0.70;85.70;;;;;;5055241;28;20028;-84
2020/12/04 05:42:29;;;;;;;28.83;15.63;;;0.70;86.00;;;;;;5039833;28;20025;-83
2020/12/04 05:44:55;;;;;;;29.85;17.08;;;0.80;86.10;;;;;;5039716;28;20029;-84
2020/12/04 05:47:33;;;;;;;30.25;16.30;;;0.80;86.50;;;;;;5047411;28;20032;-84
2020/12/04 05:49:59;;;;;;;29.67;16.45;;;0.80;85.80;;;;;;5048131;28;20029;-84
2020/12/04 05:52:25;;;;;;;30.30;17.52;;;0.90;85.90;;;;;;5054590;28;20029;-84
2020/12/04 05:54:51;;;;;;;30.88;17.45;;;0.90;85.70;;;;;;5025100;28;20142;-84
2020/12/04 05:57:19;;;;;;;31.92;15.75;;;0.90;85.50;;;;;;5047256;28;20021;-84
2020/12/04 05:59:48;;;;;;;27.60;15.90;;;1.10;85.40;;;;;;5046537;28;20040;-84
2020/12/04 06:02:14;;;;;;;27.17;15.55;;;1.10;84.80;;;;;;5029940;28;20048;-84
2020/12/04 06:04:42;;;;;;;26.70;16.05;;;1.00;84.90;;;;;;5020737;28;20034;-85
2020/12/04 06:07:12;;;;;;;29.17;18.02;;;1.00;84.60;;;;;;5048858;28;20017;-85
2020/12/04 06:09:40;;;;;;;28.03;16.03;;;0.90;84.80;;;;;;5027329;28;20029;-85
2020/12/04 06:12:11;;;;;;;26.15;15.65;;;0.90;84.80;;;;;;5055375;28;20092;-84
2020/12/04 06:14:37;;;;;;;;;;;0.90;84.60;;;;;;5038423;28;20032;-84
2020/12/04 06:17:02;;;;;;;26.13;14.88;;;0.90;84.70;;;;;;5030906;28;19905;-84
2020/12/04 06:19:36;;;;;;;26.50;15.57;;;0.80;84.80;;;;;;5025486;28;20361;-83
2020/12/04 06:22:10;;;;;;;26.30;15.70;;;0.80;85.30;;;;;;5032424;23;20716;-83
2020/12/04 06:24:54;;;;;;;23.70;15.32;;;0.80;85.00;;;;;;5054025;28;20132;-83
2020/12/04 06:27:44;;;;;;;28.73;15.18;;;0.80;85.10;;;;;;5057166;28;20091;-85
2020/12/04 06:30:15;;;;;;;24.63;14.27;;;0.80;85.50;;;;;;5056746;28;20502;-84
2020/12/04 06:32:49;;;;;;;23.80;15.07;;;0.80;85.40;;;;;;5056465;28;20021;-85
2020/12/04 06:35:31;;;;;;;24.88;14.75;;;1.00;85.00;;;;;;5058040;28;20400;-85
2020/12/04 06:37:57;;;;;;;27.77;16.05;;;1.00;84.70;;;;;;5057510;28;20017;-85
2020/12/04 06:40:25;;;;;;;25.25;15.70;;;1.00;85.10;;;;;;5054689;28;20066;-85
2020/12/04 06:42:52;;;;;;;25.75;14.65;;;1.00;85.40;;;;;;5038674;28;20057;-84
2020/12/04 06:45:19;;;;;;;26.52;15.55;;;1.00;85.00;;;;;;5054839;28;20029;-83
2020/12/04 06:48:11;;;;;;;25.85;15.05;;;0.90;85.30;;;;;;5053999;28;20035;-83
2020/12/04 06:50:38;;;;;;;23.85;15.05;;;1.00;85.60;;;;;;5053959;28;20514;-83
2020/12/04 06:53:09;;;;;;;23.85;14.73;;;1.10;84.90;;;;;;5054040;28;20025;-83
2020/12/04 06:55:35;;;;;;;25.38;15.38;;;1.20;84.40;;;;;;5052657;28;20063;-82
2020/12/04 06:58:01;;;;;;;27.63;15.88;;;1.20;84.40;;;;;;5053595;28;20032;-84
2020/12/04 07:00:28;;;;;;;26.58;15.00;;;1.20;84.40;;;;;;5035146;28;20021;-82
2020/12/04 07:02:54;;;;;;;25.05;14.80;;;1.30;84.40;;;;;;5048847;28;20033;-82
2020/12/04 07:05:27;;;;;;;25.48;14.82;;;1.30;84.30;;;;;;5041115;28;20028;-83
2020/12/04 07:08:07;;;;;;;25.90;15.77;;;1.30;84.20;;;;;;5051911;28;20028;-84
2020/12/04 07:10:34;;;;;;;23.98;14.50;;;1.30;84.10;;;;;;5053182;28;20040;-83
2020/12/04 07:13:01;;;;;;;26.65;15.02;;;1.30;84.00;;;;;;5053077;28;20024;-83
2020/12/04 07:15:27;;;;;;;25.00;14.82;;;1.30;84.00;;;;;;5053079;28;20029;-82
2020/12/04 07:17:54;;;;;;;26.20;14.90;;;1.30;84.30;;;;;;5051742;28;20025;-82
2020/12/04 07:20:20;;;;;;;24.67;15.10;;;1.30;84.30;;;;;;5052629;28;20029;-82
2020/12/04 07:22:45;;;;;;;27.05;16.42;;;1.30;84.40;;;;;;5036250;28;20116;-82
2020/12/04 07:25:11;;;;;;;23.50;13.90;;;1.30;84.50;;;;;;5045207;28;20025;-81
2020/12/04 07:27:38;;;;;;;22.02;13.60;;;1.30;84.40;;;;;;5042129;28;20063;-81
2020/12/04 07:30:17;;;;;;;23.63;14.88;;;1.30;84.10;;;;;;5038262;28;20076;-81
2020/12/04 07:32:54;;;;;;;23.50;14.85;;;1.50;83.90;;;;;;5049294;28;20021;-81
2020/12/04 07:35:20;;;;;;;25.23;14.55;;;1.60;83.90;;;;;;5038967;28;20104;-80
2020/12/04 07:37:46;;;;;;;24.48;14.85;;;1.60;83.70;;;;;;5040981;28;20029;-81
2020/12/04 07:40:14;;;;;;;21.45;13.10;;;1.60;83.60;;;;;;5047432;28;20770;-81
2020/12/04 07:42:40;;;;;;;19.80;13.20;;;1.60;83.20;;;;;;5035857;28;20060;-82
2020/12/04 07:45:06;;;;;;;23.45;14.82;;;1.70;83.80;;;;;;5046677;28;20029;-80
2020/12/04 07:47:32;;;;;;;21.30;13.98;;;1.80;82.80;;;;;;5042044;28;20021;-82
2020/12/04 07:50:02;;;;;;;21.35;14.45;;;2.00;82.80;;;;;;5039428;28;20052;-80
2020/12/04 07:52:35;;;;;;;21.88;13.55;;;2.30;81.60;;;;;;5048955;28;20021;-78
2020/12/04 07:55:03;;;;;;;20.73;13.50;;;2.40;81.10;;;;;;5037395;28;20483;-81
2020/12/04 07:57:49;;;;;;;21.40;14.00;;;2.40;80.80;;;;;;5043103;28;20029;-81
2020/12/04 08:00:15;;;;;;;23.40;13.88;;;2.50;80.70;;;;;;5047398;28;20082;-80
2020/12/04 08:02:41;;;;;;;21.33;12.90;;;2.50;81.10;;;;;;5038296;28;20365;-79
2020/12/04 08:05:07;;;;;;;21.50;13.43;;;2.60;81.30;;;;;;5045704;28;20026;-80
2020/12/04 08:07:34;;;;;;;22.95;14.40;;;2.70;80.30;;;;;;5041705;28;20395;-85
2020/12/04 08:10:01;;;;;;;21.55;14.32;;;2.70;80.20;;;;;;5038677;28;20425;-85
2020/12/04 08:12:32;;;;;;;22.42;15.00;;;2.60;81.00;;;;;;5047063;28;20056;-85
2020/12/04 08:14:59;;;;;;;21.38;14.18;;;2.70;80.60;;;;;;5036835;28;20025;-74
2020/12/04 08:17:27;;;;;;;23.15;15.13;;;2.70;79.70;;;;;;5043400;28;20045;-74
2020/12/04 08:19:53;;;;;;;20.73;13.80;;;2.70;79.50;;;;;;5043920;28;20562;-74
2020/12/04 08:22:32;;;;;;;19.25;12.55;;;2.70;79.50;;;;;;5035801;28;20061;-75
2020/12/04 08:25:04;;;;;;;22.13;13.80;;;2.70;79.30;;;;;;5036622;28;20040;-74
2020/12/04 08:27:56;;;;;;;22.10;13.70;;;2.80;79.00;;;;;;5042691;28;20049;-74
2020/12/04 08:30:24;;;;;;;20.08;13.00;;;2.80;78.90;;;;;;5044095;28;20029;-74
2020/12/04 08:32:53;;;;;;;20.40;13.65;;;2.80;79.00;;;;;;5051699;28;20017;-74
2020/12/04 08:35:24;;;;;;;20.13;13.48;;;2.80;79.10;;;;;;5044109;28;20028;-74
2020/12/04 08:37:51;;;;;;;19.67;14.07;;;2.70;79.30;;;;;;5043687;28;20036;-74
2020/12/04 08:40:23;;;;;;;21.23;14.07;;;2.60;79.70;;;;;;5030365;28;20492;-73
2020/12/04 08:42:48;;;;;;;20.58;13.15;;;2.60;79.70;;;;;;5035194;28;20072;-74
2020/12/04 08:45:14;;;;;;;17.63;12.60;;;2.60;79.80;;;;;;5043397;28;20445;-74
2020/12/04 08:47:43;;;;;;;21.60;13.23;;;2.70;79.50;;;;;;5042298;28;20035;-74
2020/12/04 08:50:17;;;;;;;17.95;12.45;;;2.70;79.50;;;;;;5037028;28;20021;-77
2020/12/04 08:52:48;;;;;;;17.63;11.75;;;2.80;79.30;;;;;;5048258;28;20061;-76
2020/12/04 08:55:20;;;;;;;18.75;11.93;;;2.90;79.10;;;;;;5038488;28;20025;-76
2020/12/04 08:57:48;;;;;;;19.52;12.82;;;3.00;78.80;;;;;;5040046;28;20049;-76
2020/12/04 09:00:19;;;;;;;19.83;12.90;;;3.00;78.70;;;;;;5047204;28;20420;-76
2020/12/04 09:02:45;;;;;;;17.17;11.82;;;3.00;78.60;;;;;;5038514;28;20033;-75
2020/12/04 09:05:16;;;;;;;18.67;11.65;;;3.00;78.40;;;;;;5050349;28;20083;-75
2020/12/04 09:07:43;;;;;;;15.93;11.60;;;3.00;78.60;;;;;;5047816;28;20108;-76
2020/12/04 09:10:15;;;;;;;16.13;11.23;;;3.00;78.50;;;;;;5041168;28;20029;-78
2020/12/04 09:12:43;;;;;;;18.30;11.88;;;3.10;78.30;;;;;;5051993;28;20116;-78
2020/12/04 09:15:12;;;;;;;17.42;11.20;;;3.10;78.10;;;;;;5040328;28;20021;-78
2020/12/04 09:17:38;;;;;;;17.63;12.00;;;3.10;78.00;;;;;;5044913;28;20048;-78
2020/12/04 09:20:05;;;;;;;17.83;12.10;;;3.20;78.10;;;;;;5048703;28;20476;-78
2020/12/04 09:22:31;;;;;;;21.50;11.95;;;3.20;78.00;;;;;;5038538;28;20099;-78
2020/12/04 09:25:01;;;;;;;18.85;12.25;;;3.30;78.00;;;;;;5055143;28;20104;-85
2020/12/04 09:27:27;;;;;;;20.13;11.30;;;3.30;77.90;;;;;;5046388;28;20514;-77
2020/12/04 09:29:53;;;;;;;18.00;12.63;;;3.40;77.60;;;;;;5036600;28;20060;-78
2020/12/04 09:32:19;;;;;;;19.52;12.88;;;3.40;77.80;;;;;;5038996;28;20495;-79
2020/12/04 09:34:47;;;;;;;18.85;12.68;;;3.40;77.80;;;;;;5052702;28;20025;-78
2020/12/04 09:37:28;;;;;;;19.23;12.32;;;3.40;77.80;;;;;;5055117;28;20017;-75
2020/12/04 09:39:56;;;;;;;43.83;21.70;;;3.50;77.80;;;;;;5038418;28;20029;-74
2020/12/04 09:42:24;;;;;;;35.45;18.23;;;3.40;78.00;;;;;;5049277;28;20021;-73
2020/12/04 09:44:51;;;;;;;17.67;12.10;;;3.50;77.90;;;;;;5044763;28;20052;-75
2020/12/04 09:47:17;;;;;;;25.30;15.25;;;3.60;77.50;;;;;;5041150;28;20049;-79
2020/12/04 09:49:43;;;;;;;21.20;12.32;;;3.70;77.40;;;;;;5050910;28;20491;-73
2020/12/04 09:52:10;;;;;;;24.48;14.18;;;3.70;77.10;;;;;;5039150;28;20021;-73
2020/12/04 09:54:38;;;;;;;18.08;12.57;;;3.70;77.00;;;;;;5045179;28;20070;-74
2020/12/04 09:57:05;;;;;;;19.20;13.45;;;3.60;77.20;;;;;;5046186;28;20490;-77
2020/12/04 09:59:32;;;;;;;31.77;18.05;;;3.70;77.20;;;;;;5038596;28;20032;-81
2020/12/04 10:01:58;;;;;;;17.70;12.20;;;3.70;77.60;;;;;;5050323;28;20053;-76
2020/12/04 10:04:24;;;;;;;17.55;12.48;;;3.70;76.90;;;;;;5039575;28;20214;-76
2020/12/04 10:06:51;;;;;;;17.85;11.45;;;3.80;77.10;;;;;;5044325;28;20020;-77
2020/12/04 10:09:18;;;;;;;18.00;12.05;;;3.80;77.00;;;;;;5048175;28;20075;-76
2020/12/04 10:11:44;;;;;;;28.40;14.98;;;3.80;76.60;;;;;;5036289;28;20071;-76
2020/12/04 10:14:09;;;;;;;21.50;13.85;;;3.90;76.50;;;;;;5049626;28;20091;-75
2020/12/04 10:16:35;;;;;;;20.08;12.57;;;3.90;76.50;;;;;;5042370;28;20476;-74
2020/12/04 10:19:01;;;;;;;17.88;12.00;;;3.90;76.30;;;;;;5024741;28;20030;-75
2020/12/04 10:21:31;;;;;;;17.17;11.38;;;4.00;76.10;;;;;;5049335;28;20017;-77
2020/12/04 10:23:57;;;;;;;32.55;18.13;;;4.00;76.00;;;;;;5037312;28;20130;-74
2020/12/04 10:26:23;;;;;;;18.17;11.63;;;4.10;76.50;;;;;;5047857;28;20435;-74
2020/12/04 10:28:48;;;;;;;17.52;11.27;;;4.20;75.40;;;;;;5042327;28;20061;-77
2020/12/04 10:31:14;;;;;;;22.63;13.60;;;4.30;75.00;;;;;;5054104;28;20554;-75
2020/12/04 10:33:40;;;;;;;17.58;11.50;;;4.40;74.60;;;;;;5036903;28;20076;-78
2020/12/04 10:36:06;;;;;;;30.02;15.95;;;4.50;74.10;;;;;;5037813;28;20420;-75
2020/12/04 10:38:31;;;;;;;23.90;14.02;;;4.60;74.30;;;;;;5046352;28;20494;-77
2020/12/04 10:40:58;;;;;;;31.63;16.60;;;4.60;73.70;;;;;;5045001;28;20501;-76
2020/12/04 10:43:24;;;;;;;28.80;16.27;;;4.60;74.00;;;;;;5038842;28;20033;-79
2020/12/04 10:45:51;;;;;;;16.63;11.57;;;4.60;73.80;;;;;;5050128;28;20178;-76
2020/12/04 10:48:16;;;;;;;45.78;25.40;;;4.50;73.80;;;;;;5037922;28;20527;-75
2020/12/04 10:50:44;;;;;;;18.35;11.75;;;4.50;74.20;;;;;;5045553;28;20111;-76
2020/12/04 10:53:10;;;;;;;16.95;11.05;;;4.50;73.30;;;;;;5052247;28;20025;-77
2020/12/04 10:55:36;;;;;;;19.15;12.43;;;4.40;73.60;;;;;;5035478;28;20550;-73
2020/12/04 10:58:02;;;;;;;14.43;10.55;;;4.30;73.80;;;;;;5049616;28;20021;-76
2020/12/04 11:00:27;;;;;;;35.92;18.67;;;4.30;73.80;;;;;;5037530;28;20032;-76
2020/12/04 11:03:00;;;;;;;15.80;10.88;;;4.30;74.40;;;;;;5043751;28;20040;-75
2020/12/04 11:05:34;;;;;;;26.02;14.48;;;4.40;73.80;;;;;;5037188;28;20034;-74
2020/12/04 11:07:59;;;;;;;20.70;12.40;;;4.50;73.90;;;;;;5049779;28;20473;-75
2020/12/04 11:10:25;;;;;;;26.17;14.65;;;4.60;73.10;;;;;;5039541;28;20025;-75
2020/12/04 11:12:51;;;;;;;38.35;20.60;;;4.60;73.30;;;;;;5042957;28;20439;-75
2020/12/04 11:15:17;;;;;;;17.27;11.02;;;4.70;73.80;;;;;;5046492;28;20029;-76
2020/12/04 11:17:43;;;;;;;28.42;15.48;;;4.60;73.00;;;;;;5036259;28;20380;-75
2020/12/04 11:20:08;;;;;;;32.58;16.58;;;4.50;73.50;;;;;;5047268;28;20033;-74
2020/12/04 11:22:35;;;;;;;21.75;12.43;;;4.40;74.30;;;;;;5040726;28;20056;-74
2020/12/04 11:25:02;;;;;;;15.70;10.45;;;4.30;74.20;;;;;;5041309;28;20551;-74
2020/12/04 11:27:27;;;;;;;19.98;12.45;;;4.30;74.00;;;;;;5047355;28;20025;-74
2020/12/04 11:29:53;;;;;;;21.02;11.75;;;4.30;73.90;;;;;;5050527;28;20146;-74
2020/12/04 11:32:19;;;;;;;17.70;12.10;;;4.30;73.90;;;;;;5038665;28;20110;-78
2020/12/04 11:34:45;;;;;;;18.30;11.77;;;4.50;73.60;;;;;;5043495;28;20037;-81
2020/12/04 11:37:11;;;;;;;16.52;11.77;;;4.50;73.40;;;;;;5045450;28;20048;-79
2020/12/04 11:39:40;;;;;;;19.88;12.93;;;4.60;72.80;;;;;;5036015;28;20028;-77
2020/12/04 11:42:07;;;;;;;32.55;12.35;;;4.50;73.00;;;;;;5036494;28;20017;-76
2020/12/04 11:44:33;;;;;;;46.55;27.02;;;4.30;73.60;;;;;;5043513;28;20029;-75
2020/12/04 11:46:59;;;;;;;16.77;12.02;;;4.20;74.80;;;;;;5042285;28;20035;-75
2020/12/04 11:49:25;;;;;;;20.20;12.93;;;4.10;74.20;;;;;;5051163;28;20025;-77
2020/12/04 11:51:50;;;;;;;18.80;12.45;;;4.10;74.10;;;;;;5036094;28;20013;-78
2020/12/04 11:54:16;;;;;;;21.13;12.75;;;4.10;74.30;;;;;;5045609;28;20021;-77
2020/12/04 11:56:46;;;;;;;24.25;15.18;;;4.00;74.80;;;;;;5041117;28;20380;-77
2020/12/04 11:59:12;;;;;;;19.05;11.38;;;3.90;75.00;;;;;;5045688;28;20087;-78
2020/12/04 12:01:37;;;;;;;18.50;11.98;;;3.90;74.80;;;;;;5035850;28;20411;-75
2020/12/04 12:04:03;;;;;;;25.23;14.93;;;4.00;74.40;;;;;;5049275;28;20057;-76
2020/12/04 12:06:32;;;;;;;20.10;12.57;;;4.10;74.80;;;;;;5040195;28;20065;-77
2020/12/04 12:08:59;;;;;;;25.92;14.35;;;4.20;74.20;;;;;;5041670;28;20033;-76
2020/12/04 12:11:24;;;;;;;18.95;11.65;;;4.50;73.00;;;;;;5047659;28;20029;-73
2020/12/04 12:13:50;;;;;;;22.75;13.80;;;4.70;71.90;;;;;;5035842;28;20026;-76
2020/12/04 12:16:17;;;;;;;18.33;12.02;;;5.00;72.00;;;;;;5059342;22;20567;-76
2020/12/04 12:18:43;;;;;;;20.42;12.10;;;5.10;71.10;;;;;;5035502;28;20105;-75
2020/12/04 12:21:09;;;;;;;15.15;10.57;;;5.20;70.70;;;;;;5007045;28;20232;-75
2020/12/04 12:23:36;;;;;;;17.98;10.95;;;5.10;70.70;;;;;;5015962;28;20113;-76
2020/12/04 12:26:05;;;;;;;26.60;14.88;;;5.00;70.60;;;;;;5028808;28;20026;-76
2020/12/04 12:28:31;;;;;;;21.73;13.27;;;4.90;71.50;;;;;;4995592;28;20065;-76
2020/12/04 12:30:57;;;;;;;27.77;15.35;;;4.80;71.70;;;;;;5023208;28;20051;-76
2020/12/04 12:33:24;;;;;;;18.92;11.60;;;4.60;72.00;;;;;;5017662;28;20079;-78